createdAt,value
2022-08-16T00:02:31.555Z,17.92
2022-08-16T00:04:59.680Z,18.00
2022-08-16T00:07:29.196Z,18.13
2022-08-16T00:09:57.493Z,18.10
2022-08-16T00:12:25.364Z,18.06
2022-08-16T00:14:56.587Z,17.93
2022-08-16T00:17:24.259Z,17.79
2022-08-16T00:19:53.623Z,17.76
2022-08-16T00:22:21.223Z,17.80
2022-08-16T00:24:54.765Z,17.84
2022-08-16T00:27:23.127Z,17.82
2022-08-16T00:30:00.769Z,17.81
2022-08-16T00:32:43.225Z,17.81
2022-08-16T00:35:15.640Z,18.00
2022-08-16T00:37:58.970Z,17.78
2022-08-16T00:40:50.947Z,17.71
2022-08-16T00:43:42.441Z,17.75
2022-08-16T00:46:22.286Z,17.77
2022-08-16T00:49:02.535Z,17.53
2022-08-16T00:51:29.773Z,17.49
2022-08-16T00:53:57.002Z,17.51
2022-08-16T00:56:58.119Z,17.55
2022-08-16T00:59:17.538Z,17.56
2022-08-16T01:01:45.340Z,17.51
2022-08-16T01:04:25.799Z,17.44
2022-08-16T01:07:02.255Z,17.36
2022-08-16T01:09:33.772Z,17.36
2022-08-16T01:12:02.094Z,17.25
2022-08-16T01:14:33.448Z,17.30
2022-08-16T01:17:01.044Z,17.29
2022-08-16T01:19:31.497Z,17.09
2022-08-16T01:22:46.996Z,17.10
2022-08-16T01:24:55.653Z,17.06
2022-08-16T01:27:35.747Z,16.89
2022-08-16T01:30:20.434Z,16.93
2022-08-16T01:33:02.904Z,16.91
2022-08-16T01:35:41.937Z,16.95
2022-08-16T01:38:36.113Z,16.98
2022-08-16T01:41:07.178Z,16.91
2022-08-16T01:43:35.079Z,16.75
2022-08-16T01:46:37.052Z,16.69
2022-08-16T01:48:56.402Z,16.71
2022-08-16T01:51:25.238Z,16.81
2022-08-16T01:53:55.389Z,16.91
2022-08-16T01:56:24.714Z,16.91
2022-08-16T01:58:54.994Z,16.83
2022-08-16T02:01:22.317Z,16.73
2022-08-16T02:03:50.509Z,16.81
2022-08-16T02:06:26.044Z,16.85
2022-08-16T02:09:00.863Z,16.73
2022-08-16T02:11:48.279Z,16.76
2022-08-16T02:14:18.393Z,16.80
2022-08-16T02:16:48.942Z,16.77
2022-08-16T02:19:18.348Z,16.68
2022-08-16T02:22:09.322Z,16.73
2022-08-16T02:24:40.942Z,16.77
2022-08-16T02:27:09.360Z,16.80
2022-08-16T02:29:36.171Z,16.80
2022-08-16T02:32:50.277Z,16.82
2022-08-16T02:34:51.335Z,16.82
2022-08-16T02:37:23.209Z,16.71
2022-08-16T02:39:53.941Z,16.64
2022-08-16T02:42:21.328Z,16.73
2022-08-16T02:44:48.957Z,16.75
2022-08-16T02:47:25.088Z,16.70
2022-08-16T02:50:30.594Z,16.72
2022-08-16T02:52:39.103Z,16.56
2022-08-16T02:55:40.854Z,16.44
2022-08-16T02:58:08.692Z,16.41
2022-08-16T03:00:36.163Z,16.47
2022-08-16T03:03:04.751Z,16.37
2022-08-16T03:05:37.381Z,16.37
2022-08-16T03:08:05.329Z,16.44
2022-08-16T03:10:52.874Z,16.43
2022-08-16T03:13:20.673Z,16.44
2022-08-16T03:15:49.738Z,16.44
2022-08-16T03:18:34.200Z,16.46
2022-08-16T03:21:01.629Z,16.45
2022-08-16T03:23:28.305Z,16.44
2022-08-16T03:26:02.689Z,16.34
2022-08-16T03:28:29.429Z,16.24
2022-08-16T03:30:56.998Z,16.28
2022-08-16T03:33:23.961Z,16.36
2022-08-16T03:35:57.373Z,16.47
2022-08-16T03:38:32.498Z,16.44
2022-08-16T03:41:03.736Z,16.44
2022-08-16T03:43:51.053Z,16.39
2022-08-16T03:46:48.488Z,16.33
2022-08-16T03:49:12.138Z,16.32
2022-08-16T03:51:41.709Z,16.34
2022-08-16T03:54:12.669Z,16.35
2022-08-16T03:56:39.789Z,16.32
2022-08-16T03:59:24.069Z,16.32
2022-08-16T04:01:53.858Z,16.28
2022-08-16T04:04:30.974Z,16.14
2022-08-16T04:07:02.826Z,16.17
2022-08-16T04:09:35.442Z,16.10
2022-08-16T04:12:11.169Z,16.16
2022-08-16T04:14:51.927Z,16.10
2022-08-16T04:17:18.569Z,16.13
2022-08-16T04:19:46.827Z,16.04
2022-08-16T04:22:14.135Z,15.92
2022-08-16T04:24:54.065Z,15.90
2022-08-16T04:27:21.482Z,15.92
2022-08-16T04:29:52.137Z,16.00
2022-08-16T04:32:19.792Z,15.93
2022-08-16T04:34:47.377Z,15.98
2022-08-16T04:37:14.520Z,15.84
2022-08-16T04:39:46.680Z,15.85
2022-08-16T04:42:25.988Z,15.86
2022-08-16T04:44:56.073Z,15.92
2022-08-16T04:47:31.355Z,15.90
2022-08-16T04:50:00.126Z,15.94
2022-08-16T04:52:34.562Z,15.98
2022-08-16T04:55:11.952Z,15.98
2022-08-16T04:57:39.567Z,16.01
2022-08-16T05:00:32.677Z,16.13
2022-08-16T05:03:08.942Z,16.16
2022-08-16T05:05:44.881Z,15.92
2022-08-16T05:08:29.700Z,16.01
2022-08-16T05:11:00.596Z,15.91
2022-08-16T05:13:41.665Z,16.02
2022-08-16T05:16:21.742Z,16.16
2022-08-16T05:18:51.380Z,16.47
2022-08-16T05:21:20.871Z,16.76
2022-08-16T05:23:55.458Z,16.91
2022-08-16T05:26:27.793Z,17.10
2022-08-16T05:28:59.469Z,17.31
2022-08-16T05:31:29.781Z,17.54
2022-08-16T05:33:59.165Z,17.70
2022-08-16T05:36:33.982Z,17.86
2022-08-16T05:39:05.594Z,18.18
2022-08-16T05:41:32.721Z,17.84
2022-08-16T05:44:05.613Z,17.81
2022-08-16T05:46:49.929Z,18.28
2022-08-16T05:49:22.611Z,18.19
2022-08-16T05:51:50.381Z,18.28
2022-08-16T05:54:25.006Z,18.66
2022-08-16T05:56:53.159Z,19.29
2022-08-16T05:59:21.996Z,19.50
2022-08-16T06:01:50.813Z,19.63
2022-08-16T06:04:35.494Z,19.95
2022-08-16T06:07:08.936Z,19.80
2022-08-16T06:09:51.292Z,19.37
2022-08-16T06:12:26.803Z,19.31
2022-08-16T06:14:59.351Z,19.41
2022-08-16T06:17:41.139Z,19.15
2022-08-16T06:20:18.378Z,18.69
2022-08-16T06:22:58.872Z,19.63
2022-08-16T06:25:36.787Z,20.35
2022-08-16T06:28:10.010Z,20.43
2022-08-16T06:30:44.106Z,19.74
2022-08-16T06:33:19.637Z,20.31
2022-08-16T06:35:49.709Z,20.10
2022-08-16T06:38:32.228Z,19.88
2022-08-16T06:41:05.442Z,20.19
2022-08-16T06:43:33.343Z,19.57
2022-08-16T06:46:03.812Z,19.74
2022-08-16T06:48:32.791Z,20.06
2022-08-16T06:51:04.523Z,20.20
2022-08-16T06:53:35.441Z,20.13
2022-08-16T06:56:14.692Z,20.62
2022-08-16T06:58:50.833Z,20.71
2022-08-16T07:01:21.430Z,20.43
2022-08-16T07:03:54.500Z,20.92
2022-08-16T07:06:26.686Z,21.03
2022-08-16T07:08:54.601Z,20.34
2022-08-16T07:11:48.222Z,20.69
2022-08-16T07:14:26.224Z,21.22
2022-08-16T07:16:58.976Z,21.04
2022-08-16T07:19:33.684Z,21.06
2022-08-16T07:22:47.682Z,21.82
2022-08-16T07:25:07.821Z,22.40
2022-08-16T07:27:37.314Z,22.03
2022-08-16T07:30:39.785Z,22.06
2022-08-16T07:32:55.688Z,22.35
2022-08-16T07:35:22.570Z,21.70
2022-08-16T07:37:49.874Z,21.59
2022-08-16T07:40:17.529Z,22.59
2022-08-16T07:42:44.379Z,22.32
2022-08-16T07:45:12.421Z,22.45
2022-08-16T07:47:39.323Z,22.80
2022-08-16T07:50:56.186Z,22.18
2022-08-16T07:52:57.342Z,22.97
2022-08-16T07:55:27.187Z,23.27
2022-08-16T07:58:01.153Z,23.45
2022-08-16T08:00:31.162Z,23.80
2022-08-16T08:03:00.543Z,23.16
2022-08-16T08:05:35.422Z,23.29
2022-08-16T08:08:11.430Z,22.61
2022-08-16T08:10:47.242Z,23.36
2022-08-16T08:13:15.710Z,23.36
2022-08-16T08:15:52.563Z,23.13
2022-08-16T08:18:29.304Z,22.25
2022-08-16T08:20:58.871Z,22.43
2022-08-16T08:23:27.744Z,22.44
2022-08-16T08:25:55.875Z,23.11
2022-08-16T08:28:23.013Z,22.78
2022-08-16T08:31:01.198Z,22.98
2022-08-16T08:33:29.365Z,23.12
2022-08-16T08:36:00.919Z,22.43
2022-08-16T08:38:44.260Z,23.18
2022-08-16T08:41:18.399Z,23.21
2022-08-16T08:43:46.798Z,22.74
2022-08-16T08:46:21.353Z,23.77
2022-08-16T08:48:59.924Z,23.93
2022-08-16T08:51:35.814Z,24.16
2022-08-16T08:54:09.073Z,22.96
2022-08-16T08:56:37.646Z,23.65
2022-08-16T08:59:13.161Z,24.20
2022-08-16T09:01:56.557Z,24.12
2022-08-16T09:04:26.935Z,23.93
2022-08-16T09:06:54.995Z,24.79
2022-08-16T09:09:23.104Z,24.57
2022-08-16T09:12:03.949Z,24.28
2022-08-16T09:14:33.083Z,24.31
2022-08-16T09:17:02.858Z,24.20
2022-08-16T09:19:32.297Z,24.16
2022-08-16T09:22:00.832Z,24.19
2022-08-16T09:24:32.215Z,24.56
2022-08-16T09:27:14.962Z,24.67
2022-08-16T09:29:44.691Z,24.63
2022-08-16T09:32:12.686Z,23.88
2022-08-16T09:34:58.467Z,24.30
2022-08-16T09:37:29.685Z,24.84
2022-08-16T09:40:00.730Z,25.50
2022-08-16T09:42:30.780Z,25.35
2022-08-16T09:45:18.421Z,25.29
2022-08-16T09:47:57.064Z,24.92
2022-08-16T09:50:36.802Z,25.49
2022-08-16T09:53:15.509Z,25.45
2022-08-16T09:55:50.190Z,25.52
2022-08-16T09:58:41.565Z,25.87
2022-08-16T10:01:11.198Z,25.73
2022-08-16T10:03:38.800Z,25.92
2022-08-16T10:06:26.286Z,26.01
2022-08-16T10:09:05.440Z,25.93
2022-08-16T10:11:55.160Z,25.74
2022-08-16T10:14:24.604Z,25.77
2022-08-16T10:17:02.499Z,25.78
2022-08-16T10:19:29.781Z,24.90
2022-08-16T10:22:04.806Z,25.40
2022-08-16T10:24:33.175Z,25.25
2022-08-16T10:27:25.689Z,25.48
2022-08-16T10:30:01.107Z,26.46
2022-08-16T10:32:34.561Z,26.73
2022-08-16T10:35:03.522Z,25.82
2022-08-16T10:37:35.789Z,25.66
2022-08-16T10:40:29.073Z,26.04
2022-08-16T10:42:56.161Z,25.45
2022-08-16T10:45:23.061Z,26.20
2022-08-16T10:47:58.858Z,26.07
2022-08-16T10:50:31.191Z,26.14
2022-08-16T10:52:59.295Z,26.49
2022-08-16T10:55:44.733Z,26.72
2022-08-16T10:58:17.038Z,26.69
2022-08-16T11:00:46.053Z,26.65
2022-08-16T11:06:03.409Z,26.66
2022-08-16T11:08:37.520Z,26.26
2022-08-16T11:11:15.530Z,26.53
2022-08-16T11:14:11.060Z,26.73
2022-08-16T11:19:22.923Z,26.73
2022-08-16T11:24:44.540Z,26.30
2022-08-16T11:27:20.216Z,26.83
2022-08-16T11:29:55.170Z,26.70
2022-08-16T11:32:31.293Z,26.66
2022-08-16T11:35:10.840Z,26.87
2022-08-16T11:40:44.418Z,26.83
2022-08-16T11:43:16.998Z,26.61
2022-08-16T11:45:53.895Z,26.95
2022-08-16T11:48:22.881Z,27.14
2022-08-16T11:50:49.820Z,27.30
2022-08-16T11:53:17.341Z,27.48
2022-08-16T11:55:44.759Z,27.14
2022-08-16T11:58:11.963Z,27.14
2022-08-16T12:00:51.087Z,27.18
2022-08-16T12:03:21.083Z,26.99
2022-08-16T12:05:59.222Z,27.31
2022-08-16T12:08:27.364Z,27.33
2022-08-16T12:10:59.250Z,27.06
2022-08-16T12:13:27.007Z,27.61
2022-08-16T12:15:54.440Z,27.19
2022-08-16T12:18:21.548Z,26.95
2022-08-16T12:20:48.711Z,26.93
2022-08-16T12:23:15.836Z,27.00
2022-08-16T12:25:44.559Z,26.96
2022-08-16T12:28:12.594Z,27.19
2022-08-16T12:30:42.305Z,26.92
2022-08-16T12:33:11.766Z,27.28
2022-08-16T12:35:40.024Z,27.65
2022-08-16T12:38:37.943Z,27.56
2022-08-16T12:40:55.775Z,27.40
2022-08-16T12:43:25.051Z,27.46
2022-08-16T12:45:54.219Z,27.94
2022-08-16T12:48:44.576Z,27.83
2022-08-16T12:51:22.316Z,28.07
2022-08-16T12:53:52.773Z,27.74
2022-08-16T12:56:25.300Z,27.56
2022-08-16T12:58:53.472Z,27.64
2022-08-16T13:01:27.071Z,27.73
2022-08-16T13:04:12.444Z,28.07
2022-08-16T13:06:45.709Z,27.90
2022-08-16T13:09:20.838Z,27.62
2022-08-16T13:12:19.100Z,27.54
2022-08-16T13:14:47.361Z,27.69
2022-08-16T13:17:26.265Z,27.93
2022-08-16T13:20:11.279Z,28.49
2022-08-16T13:22:58.151Z,28.35
2022-08-16T13:25:26.902Z,27.93
2022-08-16T13:28:01.980Z,27.76
2022-08-16T13:30:48.359Z,28.12
2022-08-16T13:33:26.019Z,28.11
2022-08-16T13:35:58.488Z,27.91
2022-08-16T13:38:25.907Z,28.22
2022-08-16T13:40:55.887Z,28.14
2022-08-16T13:43:26.386Z,28.23
2022-08-16T13:45:55.411Z,28.19
2022-08-16T13:48:24.937Z,28.66
2022-08-16T13:50:53.889Z,28.65
2022-08-16T13:53:24.527Z,28.64
2022-08-16T13:55:57.884Z,28.73
2022-08-16T13:58:37.091Z,28.90
2022-08-16T14:01:17.990Z,28.87
2022-08-16T14:03:45.339Z,28.98
2022-08-16T14:06:14.206Z,29.12
2022-08-16T14:08:43.025Z,28.60
2022-08-16T14:11:15.051Z,28.84
2022-08-16T14:13:43.900Z,28.50
2022-08-16T14:16:23.470Z,28.26
2022-08-16T14:18:52.841Z,28.27
2022-08-16T14:21:23.595Z,28.42
2022-08-16T14:23:52.414Z,28.63
2022-08-16T14:26:21.363Z,28.47
2022-08-16T14:28:50.746Z,28.13
2022-08-16T14:31:18.530Z,28.27
2022-08-16T14:33:46.268Z,28.44
2022-08-16T14:36:18.878Z,28.58
2022-08-16T14:38:52.163Z,28.84
2022-08-16T14:41:18.989Z,28.34
2022-08-16T14:43:45.741Z,28.51
2022-08-16T14:46:12.660Z,28.41
2022-08-16T14:48:42.320Z,28.42
2022-08-16T14:51:09.141Z,28.73
2022-08-16T14:53:36.329Z,28.77
2022-08-16T14:56:05.220Z,29.04
2022-08-16T14:58:36.747Z,28.90
2022-08-16T15:01:10.012Z,28.73
2022-08-16T15:03:37.746Z,28.70
2022-08-16T15:06:05.307Z,28.51
2022-08-16T15:08:36.665Z,28.36
2022-08-16T15:11:03.801Z,28.55
2022-08-16T15:13:30.570Z,28.64
2022-08-16T15:16:02.308Z,28.61
2022-08-16T15:18:31.791Z,28.45
2022-08-16T15:21:00.778Z,28.13
2022-08-16T15:23:28.599Z,28.31
2022-08-16T15:26:02.932Z,28.43
2022-08-16T15:28:32.856Z,28.31
2022-08-16T15:31:05.951Z,27.97
2022-08-16T15:33:48.618Z,27.69
2022-08-16T15:36:19.285Z,27.56
2022-08-16T15:39:02.156Z,27.40
2022-08-16T15:41:42.590Z,27.22
2022-08-16T15:44:14.759Z,27.19
2022-08-16T15:46:56.851Z,27.08
2022-08-16T15:49:37.003Z,26.93
2022-08-16T15:52:29.696Z,26.69
2022-08-16T15:54:58.374Z,26.38
2022-08-16T15:57:27.070Z,26.09
2022-08-16T15:59:56.067Z,25.85
2022-08-16T16:02:31.851Z,25.72
2022-08-16T16:05:04.796Z,25.69
2022-08-16T16:07:33.462Z,25.46
2022-08-16T16:10:01.789Z,25.25
2022-08-16T16:12:53.794Z,25.32
2022-08-16T16:15:18.515Z,25.39
2022-08-16T16:17:50.900Z,25.23
2022-08-16T16:20:27.381Z,25.18
2022-08-16T16:23:02.880Z,25.06
2022-08-16T16:25:31.306Z,24.82
2022-08-16T16:28:00.182Z,24.78
2022-08-16T16:30:34.515Z,24.82
2022-08-16T16:33:11.691Z,24.68
2022-08-16T16:35:46.846Z,24.50
2022-08-16T16:38:15.679Z,24.57
2022-08-16T16:40:46.502Z,24.59
2022-08-16T16:43:20.936Z,24.43
2022-08-16T16:45:52.910Z,24.28
2022-08-16T16:48:19.720Z,23.98
2022-08-16T16:50:46.618Z,24.03
2022-08-16T16:53:17.218Z,23.99
2022-08-16T16:55:51.568Z,24.06
2022-08-16T16:58:38.973Z,24.01
2022-08-16T17:01:10.067Z,23.89
2022-08-16T17:03:38.559Z,23.88
2022-08-16T17:06:09.206Z,23.76
2022-08-16T17:08:40.736Z,23.70
2022-08-16T17:11:09.780Z,23.64
2022-08-16T17:13:37.230Z,23.55
2022-08-16T17:16:05.292Z,23.35
2022-08-16T17:19:15.669Z,23.23
2022-08-16T17:21:20.620Z,23.24
2022-08-16T17:23:58.837Z,23.36
2022-08-16T17:26:35.128Z,23.28
2022-08-16T17:29:11.139Z,23.20
2022-08-16T17:31:51.267Z,23.07
2022-08-16T17:34:28.905Z,22.99
2022-08-16T17:36:59.446Z,23.09
2022-08-16T17:39:29.574Z,23.08
2022-08-16T17:41:58.868Z,23.01
2022-08-16T17:44:25.983Z,22.62
2022-08-16T17:46:53.109Z,22.63
2022-08-16T17:49:21.122Z,22.52
2022-08-16T17:51:48.659Z,22.57
2022-08-16T17:54:18.320Z,22.57
2022-08-16T17:57:01.330Z,22.53
2022-08-16T17:59:29.243Z,22.52
2022-08-16T18:01:56.900Z,22.38
2022-08-16T18:04:49.884Z,22.16
2022-08-16T18:07:11.709Z,22.01
2022-08-16T18:09:40.942Z,21.96
2022-08-16T18:12:44.546Z,22.01
2022-08-16T18:15:07.558Z,22.00
2022-08-16T18:17:34.636Z,21.90
2022-08-16T18:20:01.429Z,21.75
2022-08-16T18:22:30.882Z,21.76
2022-08-16T18:24:58.569Z,21.78
2022-08-16T18:27:27.251Z,21.66
2022-08-16T18:29:54.828Z,21.33
2022-08-16T18:32:22.068Z,21.50
2022-08-16T18:34:51.980Z,21.45
2022-08-16T18:37:18.733Z,21.55
2022-08-16T18:39:45.606Z,21.46
2022-08-16T18:42:14.489Z,21.31
2022-08-16T18:44:43.612Z,21.32
2022-08-16T18:47:10.548Z,21.22
2022-08-16T18:49:37.371Z,21.19
2022-08-16T18:52:04.950Z,21.19
2022-08-16T18:54:33.203Z,21.13
2022-08-16T18:57:02.407Z,21.02
2022-08-16T18:59:33.298Z,20.85
2022-08-16T19:02:04.954Z,20.79
2022-08-16T19:04:55.039Z,20.74
2022-08-16T19:07:30.873Z,20.74
2022-08-16T19:10:02.250Z,20.79
2022-08-16T19:12:37.758Z,20.70
2022-08-16T19:15:21.720Z,20.65
2022-08-16T19:17:49.102Z,20.53
2022-08-16T19:20:18.682Z,20.46
2022-08-16T19:23:05.011Z,20.59
2022-08-16T19:25:49.044Z,20.53
2022-08-16T19:28:51.021Z,20.41
2022-08-16T19:31:19.319Z,20.32
2022-08-16T19:33:54.519Z,20.27
2022-08-16T19:36:43.421Z,20.18
2022-08-16T19:39:14.228Z,20.08
2022-08-16T19:41:52.091Z,20.07
2022-08-16T19:44:22.692Z,20.09
2022-08-16T19:46:50.091Z,19.91
2022-08-16T19:49:17.529Z,19.89
2022-08-16T19:51:46.323Z,19.83
2022-08-16T19:54:14.184Z,19.90
2022-08-16T19:56:41.610Z,19.77
2022-08-16T19:59:39.435Z,19.74
2022-08-16T20:01:55.640Z,19.57
2022-08-16T20:04:23.519Z,19.53
2022-08-16T20:06:52.608Z,19.34
2022-08-16T20:09:21.062Z,19.18
2022-08-16T20:11:49.847Z,19.18
2022-08-16T20:14:24.028Z,19.14
2022-08-16T20:16:57.058Z,19.19
2022-08-16T20:19:25.200Z,19.06
2022-08-16T20:21:52.154Z,18.97
2022-08-16T20:24:36.015Z,18.95
2022-08-16T20:27:06.172Z,18.91
2022-08-16T20:29:33.877Z,18.84
2022-08-16T20:32:00.859Z,18.81
2022-08-16T20:34:28.398Z,18.87
2022-08-16T20:36:55.436Z,18.82
2022-08-16T20:39:24.207Z,18.81
2022-08-16T20:41:51.853Z,18.74
2022-08-16T20:44:22.803Z,18.59
2022-08-16T20:46:51.838Z,18.49
2022-08-16T20:49:18.698Z,18.44
2022-08-16T20:51:49.687Z,18.41
2022-08-16T20:54:16.782Z,18.32
2022-08-16T20:56:43.663Z,18.18
2022-08-16T20:59:10.470Z,18.28
2022-08-16T21:01:46.355Z,18.19
2022-08-16T21:04:17.651Z,18.22
2022-08-16T21:06:52.977Z,18.00
2022-08-16T21:09:29.146Z,18.10
2022-08-16T21:11:57.315Z,18.22
2022-08-16T21:14:24.325Z,18.03
2022-08-16T21:16:51.498Z,17.82
2022-08-16T21:19:18.606Z,17.93
2022-08-16T21:21:45.560Z,18.00
2022-08-16T21:24:12.699Z,17.90
2022-08-16T21:26:39.611Z,17.88
2022-08-16T21:29:11.134Z,17.89
2022-08-16T21:31:41.216Z,17.86
2022-08-16T21:34:08.903Z,17.73
2022-08-16T21:36:36.689Z,17.71
2022-08-16T21:39:06.463Z,17.75
2022-08-16T21:41:34.762Z,17.69
2022-08-16T21:44:01.528Z,17.62
2022-08-16T21:46:28.377Z,17.62
2022-08-16T21:48:55.180Z,17.76
2022-08-16T21:51:22.630Z,17.64
2022-08-16T21:53:49.613Z,17.61
2022-08-16T21:56:17.467Z,17.52
2022-08-16T21:58:45.701Z,17.42
2022-08-16T22:01:12.686Z,17.33
2022-08-16T22:03:39.526Z,17.23
2022-08-16T22:06:14.085Z,17.19
2022-08-16T22:08:50.611Z,17.17
2022-08-16T22:11:22.210Z,17.19
2022-08-16T22:13:51.134Z,17.16
2022-08-16T22:16:27.002Z,17.10
2022-08-16T22:18:54.012Z,17.17
2022-08-16T22:21:21.360Z,17.13
2022-08-16T22:23:57.846Z,17.13
2022-08-16T22:26:31.322Z,17.06
2022-08-16T22:29:03.446Z,17.03
2022-08-16T22:31:30.912Z,16.97
2022-08-16T22:33:57.994Z,16.96
2022-08-16T22:36:28.620Z,16.85
2022-08-16T22:38:59.554Z,16.86
2022-08-16T22:41:28.230Z,16.86
2022-08-16T22:43:55.685Z,16.89
2022-08-16T22:46:22.663Z,17.01
2022-08-16T22:48:50.676Z,16.80
2022-08-16T22:51:19.749Z,16.80
2022-08-16T22:53:46.561Z,16.83
2022-08-16T22:56:13.305Z,16.82
2022-08-16T22:58:39.958Z,16.69
2022-08-16T23:01:08.659Z,16.79
2022-08-16T23:03:36.479Z,16.70
2022-08-16T23:06:04.090Z,16.61
2022-08-16T23:08:38.932Z,16.35
2022-08-16T23:11:12.817Z,16.44
2022-08-16T23:13:52.728Z,16.45
2022-08-16T23:16:25.130Z,16.68
2022-08-16T23:19:02.253Z,16.52
2022-08-16T23:21:29.564Z,16.34
2022-08-16T23:23:56.190Z,16.22
2022-08-16T23:26:44.026Z,16.40
2022-08-16T23:29:15.623Z,16.32
2022-08-16T23:31:49.392Z,16.24
2022-08-16T23:34:16.097Z,16.22
2022-08-16T23:36:42.781Z,16.19
2022-08-16T23:39:09.462Z,16.15
2022-08-16T23:41:36.397Z,16.15
2022-08-16T23:44:56.859Z,16.13
2022-08-16T23:46:49.873Z,16.23
2022-08-16T23:49:56.345Z,16.39
2022-08-16T23:52:09.910Z,16.31
2022-08-16T23:54:36.704Z,15.92
2022-08-16T23:57:03.711Z,16.00
2022-08-16T23:59:31.718Z,15.95
